Portada
METAR-TAF:

METAR-TAF

Aeroports :

Aeroport de Tànger Ibn Battuta

Tànger, Marroc

latitud: 35-44N, longitud: 005-54W, altitud: 19 m

Observació

L'informe es va fer fa 17 minuts, a les 11:00 UTC
Vent 5 kt amb direcció variable
Temperatura 16°C
Humitat 77%
Pressió 1025 hPa
Visibilitat: 8000 m
Cel ennuvolat a una alçada de 1600 ft
Núvols disperses a una alçada de 2300 ft

METAR: GMTT 261100Z VRB05KT 8000 BKN016 SCT023 16/12 Q1025 NOSIG

Hora: 12:17 (11:17 UTC)

Pronòstic

L'informe es va fer fa 6 hores i 17 minuts, a les 05:00 UTC
Pronòstic vàlid del 26 a les 06 UTC al 27 a les 12 UTC
Vent 6 kt del Sud/Sud-Oest
Visibilitat 10 km o més
Cel ennuvolat a una alçada de 2000 ft
Cel ennuvolat a una alçada de 2600 ft
Probabilitat 30% :
Temporalment
l' 27 a les 01 UTC al 27 a les 05 UTC
Visibilitat: 4000 m
boirina

TAF: GMTT 260500Z 2606/2712 20006KT 9999 BKN020 BKN026 PROB30 TEMPO 2701/2705 4000 BR

Observacions i pronòstics meteorològics de més de 4000 aeroports (METAR i TAF).

Les estacions disponibles són els punts grocs i vermells al mapa.

Posi el ratolí al punt desitjat per veure el nom de l'estació.

Feu clic per veure les observacions i els pronòstics meteorològics.

Per canviar el mapa: feu clic els botons verds amb una creu de color negre per apropar; al botó verd amb un guió per allunyar la imatge; o en les fletxes verdes per a mapes adjacents.


METAR-TAF: